AirNav   Everest Fuels
 
 1181 users online  

WN29 Blue Ribbon Airport
Sequim, Washington, USA

GOING TO SEQUIM?


FAA INFORMATION EFFECTIVE 10 SEPTEMBER 2020

Location

FAA Identifier: WN29
Lat/Long: 48-07-48.9000N 123-12-19.8750W
48-07.815000N 123-12.331250W
48.1302500,-123.2055208
(estimated)
Elevation: 103 ft. / 31 m (estimated)
Variation: 21E (1985)
From city: 5 miles NW of SEQUIM, WA
Time zone: UTC -7 (UTC -8 during Standard Time)
Zip code: 98382

Airport Operations

Airport use: Private use. Permission required prior to landing
Activation date: 01/1983
Control tower: no
ARTCC: SEATTLE CENTER
FSS: SEATTLE FLIGHT SERVICE STATION
Attendance: UNATNDD
Wind indicator: yes
Segmented circle: no

Airport Communications

WX AWOS-3P at NOW (8 nm W): 118.325 (360-457-7529)
WX ASOS at CLM (12 nm W): 135.175 (360-457-1070)
WX AWOS-3P at 0S9 (16 nm E): 119.025 (360-379-1199)

Nearby radio navigation aids

VOR radial/distance  VOR name  Freq  Var
CVVr231/20.4PENN COVE VOR/DME117.2019E
YYJr146/37.5VICTORIA VOR/DME113.7017E
PAEr269/39.3PAINE VOR/DME110.6020E

 
NDB name  Hdg/Dist  Freq  Var  ID
EDIZ HOOK077/7.933817ENOW -. --- .--
FRIDAY HARBOR181/24.028417EFHR ..-. .... .-.
SKAGIT/BAY VIEW221/37.424016EBVS -... ...- ...

Airport Services

Runway Information

Runway 7/25

Dimensions: 1961 x 60 ft. / 598 x 18 m
Surface: turf, in good condition
RUNWAY 7  RUNWAY 25
Latitude: 48-07.815333N48-07.814667N
Longitude: 123-12.572167W123-12.090333W
Elevation: 103.0 ft.103.0 ft.
Traffic pattern: leftleft
Touchdown point: yes, no lightsyes, no lights

Airport Ownership and Management from official FAA records

Ownership: Privately-owned
Owner: BLUE RIBBON FARMS
PO BOX 3141
SEQUIM, WA 98382
Phone 3017882771
PROPERTY OWNERS ASSN., INC.
Manager: DAVID WOODCOCK
402 GREYWOLF ROAD
SEQUIM, WA 98382
Phone 3017882771

Airport Operational Statistics

Aircraft based on the field: 11
Single engine airplanes: 10
Multi engine airplanes: 1
    

Additional Remarks

WILDLIFE (DEER) ON AND IN VCNTY OF ARPT, EAGLES AND SEAGULLS ALSO ON AND IN VCNTY OF ARPT.
FOR CD CTC SEATTLE ARTCC AT 253-351-3694.

Instrument Procedures

There are no published instrument procedures at WN29.

Some nearby airports with instrument procedures:

KNOW - Port Angeles Coast Guard Air Station Airport (8 nm W)
KCLM - William R Fairchild International Airport (12 nm W)
0S9 - Jefferson County International Airport (16 nm E)
KOKH - AJ Eisenberg Airport (22 nm E)
KFHR - Friday Harbor Airport (25 nm N)
 
Loc | Ops | Rwys | IFR | FBO | Links
Com | Nav | Svcs | Stats | Notes
Area around WN29 (Blue Ribbon Airport)
 
Road maps at: MapQuest Bing Google
 
Aerial photo
WARNING: Photo may not be current or correct
Aerial photo of WN29 (Blue Ribbon Airport)
Photo by Dave Woodcock, Greywolf Aerial Photography www.greywolfphotography.com
Taken in June 2005

Do you have a better or more recent aerial photo of Blue Ribbon Airport that you would like to share? If so, please send us your photo.

 
Sectional chart

 
Airport distance calculator
Flying to Blue Ribbon Airport? Find the distance to fly.

From to WN29

Sunrise and sunset
Times for 23-Sep-2020
 Local
(UTC-7)
 Zulu
(UTC)
Morning civil twilight06:3213:32
Sunrise07:0314:03
Sunset19:0602:06
Evening civil twilight19:3702:37

Current date and time
Zulu (UTC)  23-Sep-2020 13:02:32
Local (UTC-7)  23-Sep-2020 06:02:32
 
METAR
KCLM 
12nm W 
231253Z AUTO 14003KT 10SM SCT060 OVC075 13/12 A2974 RMK AO2 RAE41 SLP069 P0002 T01280117
CWQK 
15nm NW 
231200Z AUTO 34011KT 14/ RMK AO1 PK WND 01019/1102 SLP066 T0141 56019
KNOW 
16nm W 
231255Z AUTO 21005KT 10SM -DZ SCT075 BKN090 OVC110 12/12 A2973 RMK AO2 P0001 T01200115
K0S9 
16nm E 
231255Z AUTO 13020G33KT 10SM FEW014 BKN090 OVC110 15/13 A2976 RMK AO2
CWLM 
18nm N 
231200Z AUTO 12005KT 13/11 RMK AO1 SLP067 T01340112 56020
CYWH 
18nm N 
230400Z 21003KT 110V220 15SM FEW040 SCT080 OVC130 15/12 A2992 RMK SC2AC2AC4 LAST STFD OBS/NEXT 231300Z SLP134
CWPF 
19nm NW 
231245Z AUTO 35007KT 13/12 RMK AO1 SLP067 T01250122 55013
CWYJ 
19nm N 
231200Z AUTO 16004KT 14/12 RMK AO1 6020 SLP071 T01360118 50002
TAF
KCLM 
12nm W 
231130Z 2312/2412 VRB03KT 6SM -RA OVC050 FM231500 VRB05KT 2SM -RA BR SCT009 OVC020 FM240400 25005KT 4SM -SHRA BR OVC015
CYWH 
18nm N 
222038Z 2221/2304 17006KT P6SM SCT050 BKN230 FM230200 VRB03KT P6SM BKN080 TEMPO 2302/2304 P6SM -SHRA BKN030 RMK NXT FCST WILL BE ISSUED AT 231415Z
NOTAMs
Click for the latest NOTAMs
NOTAMs are issued by the DoD/FAA and will open in a separate window not controlled by AirNav.

 

 
 

Would you like to see your business listed on this page?

 If your business provides an interesting product or service to pilots, flight crews, aircraft, or users of the Blue Ribbon Airport, you should consider listing it here.  To start the listing process, click on the button below
 
Add a business
 

Other Pages about Blue Ribbon Airport

www.blueribbonfarmsassoc.com
 
Update a link
 
Copyright © AirNav, LLC. All rights reserved. Privacy Policy  Contact